Junin de los Andes, Argentina
Current Conditions -  °F | °C
As of 3:00 AM on Friday 19 Dec 2014 (Local Time) from SAZS Reporting Station
Broken Clouds Broken Clouds  
Wind Chill: 52°   Ceiling: 4000
Heat Index: 52°   Visibility: 6mi
Dew Point: 41°   Wind: 44mph
Humidity: 67%   Direction: 320°NW
Pressure: 29.5"   Gusts: 60mph
Location:  39.93°S, 71.08°W
Report Text: SAZS 190600Z 32038G52KT 9999 BKN040 FEW100 11/05 Q0999
Loading
Personal Weather Stations






























Interactive Weather Map New forecast layout! Learn more

10-Day Weather Forecast

Advertisements
Track Severe Weather on mobile